Detall de PIREP

Printer-friendly versionPDF version

[2014/12/12 09:32:00]
Flight IATA:CT3238
Pilot Number:042
Company ICAO:CAT
Aircraft Type:A320/E
PAX:98
Departing Airport: LEPA
Destination Airport: EVRA
Alternate Airport:EVJA
Online: VATSIM
Route:MEROS UN853 LUMAS UM985 TAGIP UT876 OGEPI UM726 KOGOL UN871 DOKEL UP733 TOMTI P733 KMI M994 GOMED R801 RUSNE L738 ASKOR
Flight Level:F360
No Slew and time accel
No pause
Crash detect
Detect pilot in Cockpit between each 30 and 45 minutes
09:32 Zero fuel Weight: 72530 Lbs, Fuel Weight: 41882 Lbs
09:32 VATSIM:LEPA 120900Z 00000KT 9999 FEW002 08/08 Q1023 NOSIG
09:32 VATSIM:EVRA 120920Z 19011KT 7000 -RA BKN009 OVC011 02/01 Q0999 R18/190095 NOSIG
09:42 Parking Brakes off
09:51 Take-off
09:51 Take off Weight: 150342 Lbs
09:51 Wind: 222º @ 000 Knots Heading: 237º
09:51 POS N39º 33´ 16´´ E002º 43´ 34´´
09:51 Gear Up: 139 Knots
09:51 Flaps:3 at 139 Knots
09:52 Flaps:2 at 179 Knots
09:52 Flaps:0 at 198 Knots
10:06 Wind:259º@027 Knots Heading: 058º Ground Speed: 489 Knots Altitude 28349 ft
10:15 TOC
10:15 Fuel Weight: 37563 Lb
10:21 Wind:268º@042 Knots Heading: 005º Ground Speed: 453 Knots Altitude 36233 ft
10:36 Wind:270º@043 Knots Heading: 035º Ground Speed: 472 Knots Altitude 36197 ft
10:51 Wind:280º@046 Knots Heading: 055º Ground Speed: 476 Knots Altitude 37171 ft
11:06 Wind:288º@053 Knots Heading: 048º Ground Speed: 468 Knots Altitude 37178 ft
11:21 Wind:289º@070 Knots Heading: 351º Ground Speed: 416 Knots Altitude 36991 ft
11:36 Wind:292º@088 Knots Heading: 035º Ground Speed: 468 Knots Altitude 37027 ft
11:51 Wind:294º@095 Knots Heading: 013º Ground Speed: 433 Knots Altitude 36843 ft
12:06 Wind:297º@091 Knots Heading: 024º Ground Speed: 448 Knots Altitude 36732 ft
12:21 Wind:290º@083 Knots Heading: 024º Ground Speed: 458 Knots Altitude 36692 ft
12:36 Wind:282º@062 Knots Heading: 044º Ground Speed: 483 Knots Altitude 36663 ft
12:43 TOD
12:43 Fuel Weight: 25216 Lb
12:51 Wind:272º@040 Knots Heading: 025º Ground Speed: 444 Knots Altitude 27457 ft
13:06 Wind:244º@023 Knots Heading: 057º Ground Speed: 244 Knots Altitude 6279 ft
13:08 Flaps:1 at 199 Knots
13:09 Flaps:3 at 180 Knots
13:09 Gear Down: 179 Knots
13:10 Flaps:4 at 175 Knots
13:10 Flaps:5 at 167 Knots
13:12 TouchDown:Rate -572 ft/min Speed: 137 Knots
13:12 VATSIM:EVRA 121250Z 20011KT 170V230 9999 BKN011 BKN018 OVC023 03/01 Q1000 R18/190095 NOSIG
13:12 Land
13:12 Wind:190º@011 Knots
13:12 Heading: 185º
13:12 Flight Duration: 03:21
13:12 Landing Weight: 132801 Lbs
13:12 POS N56º 55´ 29´´ E023º 58´ 16´´
13:21 Parking brakes on
13:21 Block to Block Duration: 03:39
13:21 Final Fuel: 23205 Lbls
13:21 Spent Fuel: 18677 Lbls
13:21 Flight Length: 1451 NM
13:21 TOD Land Length: 147 NM

Exportar CSV

Powered by Drupal - Modified by Danger4k